Time;durP1;ratioP1;P1;durP2;ratioP2;P2;SDS_P1;SDS_P2;PMS_P1;PMS_P2;Temp;Humidity;BMP_temperature;BMP_pressure;BME280_temperature;BME280_humidity;BME280_pressure;Samples;Min_cycle;Max_cycle;Signal;HPM_P1;HPM_P2
2022/01/28 00:00:01;;;;;;;227.45;113.22;;;;;;;;;;5056232;28;20041;-46
2022/01/28 00:05:17;;;;;;;212.60;105.82;;;;;;;;;;5056103;28;20051;-57
2022/01/28 00:07:42;;;;;;;;;;;;;;;;;;5056451;28;20542;-47
2022/01/28 00:10:09;;;;;;;208.20;106.93;;;;;;;;;;5055973;28;19909;-52
2022/01/28 00:12:40;;;;;;;207.30;104.97;;;;;;;;;;5056062;28;20100;-56
2022/01/28 00:15:17;;;;;;;213.73;104.07;;;;;;;;;;5055900;28;20526;-48
2022/01/28 00:39:15;;;;;;;168.63;87.82;;;;;;;;;;5055558;28;20025;-46
2022/01/28 00:41:41;;;;;;;151.02;80.47;;;;;;;;;;5055530;28;20147;-56
2022/01/28 00:44:07;;;;;;;144.15;78.38;;;;;;;;;;5055556;28;20071;-46
2022/01/28 00:46:33;;;;;;;151.70;79.80;;;;;;;;;;5055313;28;20021;-46
2022/01/28 00:48:59;;;;;;;142.95;75.53;;;;;;;;;;5055372;28;20461;-46
2022/01/28 00:51:25;;;;;;;148.15;79.13;;;;;;;;;;5055370;28;20393;-58
2022/01/28 00:53:51;;;;;;;147.07;76.93;;;;;;;;;;5055129;28;20491;-46
2022/01/28 00:56:17;;;;;;;144.90;76.70;;;;;;;;;;5055243;28;20060;-56
2022/01/28 00:58:46;;;;;;;136.50;72.03;;;;;;;;;;5055173;28;20044;-48
2022/01/28 01:01:12;;;;;;;122.63;63.03;;;;;;;;;;5055098;28;20489;-56
2022/01/28 01:03:38;;;;;;;125.45;64.05;;;;;;;;;;5055004;28;20108;-57
2022/01/28 01:06:04;;;;;;;123.53;66.25;;;;;;;;;;5055025;28;20029;-46
2022/01/28 01:08:30;;;;;;;137.55;71.50;;;;;;;;;;5054044;28;20021;-57
2022/01/28 01:10:56;;;;;;;145.57;76.30;;;;;;;;;;5054971;28;20465;-58
2022/01/28 01:13:22;;;;;;;145.65;77.78;;;;;;;;;;5055061;28;20035;-57
2022/01/28 01:15:53;;;;;;;158.50;85.57;;;;;;;;;;5054723;28;20025;-55
2022/01/28 01:18:29;;;;;;;154.45;83.47;;;;;;;;;;5054644;28;20043;-58
2022/01/28 01:21:07;;;;;;;166.60;86.38;;;;;;;;;;5055061;28;20021;-46
2022/01/28 01:23:39;;;;;;;190.15;94.72;;;;;;;;;;5053339;28;20170;-54
2022/01/28 01:26:11;;;;;;;;;;;;;;;;;;5055253;28;20025;-55
2022/01/28 01:28:39;;;;;;;192.57;96.50;;;;;;;;;;5054353;28;20357;-52
2022/01/28 01:31:07;;;;;;;195.77;101.90;;;;;;;;;;5054507;28;20036;-57
2022/01/28 01:33:40;;;;;;;210.82;107.45;;;;;;;;;;5054528;28;20560;-47
2022/01/28 01:36:06;;;;;;;197.40;101.78;;;;;;;;;;5054503;28;20021;-47
2022/01/28 01:38:36;;;;;;;193.15;99.97;;;;;;;;;;5054364;28;20033;-58
2022/01/28 01:41:04;;;;;;;172.40;87.47;;;;;;;;;;5054312;28;20055;-58
2022/01/28 01:43:46;;;;;;;171.25;90.32;;;;;;;;;;5054250;28;20516;-58
2022/01/28 01:54:20;;;;;;;144.43;81.88;;;;;;;;;;5053999;28;20036;-58
2022/01/28 01:56:46;;;;;;;148.45;81.60;;;;;;;;;;5053892;28;20068;-56
2022/01/28 01:59:12;;;;;;;168.10;88.55;;;;;;;;;;5053869;28;20036;-46
2022/01/28 02:01:41;;;;;;;193.82;97.57;;;;;;;;;;5054088;28;20036;-56
2022/01/28 02:04:07;;;;;;;175.80;88.75;;;;;;;;;;5053908;28;20025;-57
2022/01/28 02:06:34;;;;;;;119.15;63.17;;;;;;;;;;5053784;28;20024;-58
2022/01/28 02:09:00;;;;;;;116.88;63.38;;;;;;;;;;5053811;28;20036;-59
2022/01/28 02:11:26;;;;;;;118.80;61.28;;;;;;;;;;5054008;28;20021;-58
2022/01/28 02:13:52;;;;;;;133.52;70.40;;;;;;;;;;5053940;28;20027;-55
2022/01/28 02:16:19;;;;;;;127.18;69.13;;;;;;;;;;5053665;28;20024;-58
2022/01/28 02:18:45;;;;;;;128.32;67.90;;;;;;;;;;5053755;28;20029;-59
2022/01/28 02:21:14;;;;;;;127.70;67.35;;;;;;;;;;5053519;28;20028;-55
2022/01/28 02:23:42;;;;;;;133.88;69.07;;;;;;;;;;5053429;28;20027;-58
2022/01/28 02:26:14;;;;;;;132.93;67.20;;;;;;;;;;5053652;28;20020;-58
2022/01/28 02:28:41;;;;;;;131.00;65.32;;;;;;;;;;5053208;28;20408;-54
2022/01/28 02:31:07;;;;;;;131.93;67.40;;;;;;;;;;5053474;28;20024;-58
2022/01/28 02:33:34;;;;;;;124.43;64.55;;;;;;;;;;5053503;28;20036;-56
2022/01/28 02:36:04;;;;;;;120.13;64.07;;;;;;;;;;5053337;28;20025;-46
2022/01/28 02:38:35;;;;;;;123.53;64.22;;;;;;;;;;5053281;28;20044;-46
2022/01/28 02:41:04;;;;;;;130.88;66.93;;;;;;;;;;5053286;28;20029;-47
2022/01/28 02:46:14;;;;;;;130.30;70.00;;;;;;;;;;5053241;28;20524;-57
2022/01/28 02:48:52;;;;;;;130.32;69.15;;;;;;;;;;5053088;28;20116;-46
2022/01/28 02:51:20;;;;;;;142.13;73.50;;;;;;;;;;5053056;28;20484;-57
2022/01/28 02:56:20;;;;;;;124.63;66.72;;;;;;;;;;5053164;28;20036;-47
2022/01/28 02:58:46;;;;;;;134.90;69.82;;;;;;;;;;5052946;28;20124;-57
2022/01/28 03:01:13;;;;;;;140.13;70.88;;;;;;;;;;5053047;28;20021;-57
2022/01/28 03:03:43;;;;;;;133.85;66.78;;;;;;;;;;5052992;28;20032;-58
2022/01/28 03:06:10;;;;;;;126.65;66.95;;;;;;;;;;5053224;28;20053;-55
2022/01/28 03:08:37;;;;;;;136.35;69.07;;;;;;;;;;5052993;28;20028;-46
2022/01/28 03:14:01;;;;;;;129.07;66.07;;;;;;;;;;5052979;28;20083;-48
2022/01/28 03:16:31;;;;;;;135.70;68.82;;;;;;;;;;5052991;28;20048;-56
2022/01/28 03:19:01;;;;;;;135.73;67.45;;;;;;;;;;5052914;28;20032;-52
2022/01/28 03:23:58;;;;;;;129.00;67.70;;;;;;;;;;5052750;28;20025;-57
2022/01/28 03:26:26;;;;;;;112.97;58.08;;;;;;;;;;5052646;28;20078;-56
2022/01/28 03:28:52;;;;;;;112.10;56.97;;;;;;;;;;5052546;28;20041;-46
2022/01/28 03:31:18;;;;;;;112.30;56.08;;;;;;;;;;5053064;28;20104;-58
2022/01/28 03:33:45;;;;;;;113.90;54.60;;;;;;;;;;5056685;28;20032;-53
2022/01/28 03:36:14;;;;;;;107.07;52.58;;;;;;;;;;5056771;28;20029;-58
2022/01/28 03:38:41;;;;;;;103.15;55.10;;;;;;;;;;5056690;28;20033;-48
2022/01/28 03:41:12;;;;;;;107.07;55.58;;;;;;;;;;5056573;28;20100;-56
2022/01/28 03:43:39;;;;;;;100.15;53.53;;;;;;;;;;5056590;28;20055;-47
2022/01/28 03:46:09;;;;;;;103.38;53.58;;;;;;;;;;5056747;28;20025;-56
2022/01/28 03:48:36;;;;;;;99.72;50.85;;;;;;;;;;5056612;28;20017;-48
2022/01/28 03:51:02;;;;;;;91.05;49.70;;;;;;;;;;5056492;28;20029;-55
2022/01/28 03:53:28;;;;;;;99.65;50.95;;;;;;;;;;5056296;28;20025;-49
2022/01/28 03:55:57;;;;;;;98.85;50.67;;;;;;;;;;5056229;28;20056;-46
2022/01/28 03:58:23;;;;;;;96.43;51.72;;;;;;;;;;5056120;28;20532;-49
2022/01/28 04:00:50;;;;;;;94.30;49.10;;;;;;;;;;5056506;28;20408;-47
2022/01/28 04:13:52;;;;;;;88.30;47.35;;;;;;;;;;5056228;28;20041;-56
2022/01/28 04:16:32;;;;;;;83.95;44.65;;;;;;;;;;5054690;28;20025;-56
2022/01/28 04:19:01;;;;;;;79.43;43.42;;;;;;;;;;5055943;28;20127;-55
2022/01/28 04:21:29;;;;;;;87.00;44.97;;;;;;;;;;5056067;28;20105;-57
2022/01/28 04:23:55;;;;;;;101.00;48.28;;;;;;;;;;5056028;28;20044;-52
2022/01/28 04:26:21;;;;;;;89.90;44.95;;;;;;;;;;5056002;28;20025;-56
2022/01/28 04:28:47;;;;;;;80.20;42.75;;;;;;;;;;5055532;28;20404;-49
2022/01/28 04:31:13;;;;;;;90.10;43.22;;;;;;;;;;5055802;28;20061;-55
2022/01/28 04:33:39;;;;;;;77.00;40.78;;;;;;;;;;5055808;28;20025;-54
2022/01/28 04:36:09;;;;;;;82.15;44.10;;;;;;;;;;5055598;28;20479;-46
2022/01/28 04:38:50;;;;;;;76.78;42.63;;;;;;;;;;5055382;28;20041;-48
2022/01/28 04:41:27;;;;;;;;;;;;;;;;;;5056315;28;20032;-55
2022/01/28 04:44:01;;;;;;;102.80;49.80;;;;;;;;;;5054093;28;20357;-46
2022/01/28 04:49:18;;;;;;;120.78;58.10;;;;;;;;;;5055323;28;20063;-56
2022/01/28 04:52:14;;;;;;;99.75;51.35;;;;;;;;;;5055292;28;20521;-49
2022/01/28 04:57:32;;;;;;;81.70;44.20;;;;;;;;;;5054970;28;20087;-55
2022/01/28 05:02:42;;;;;;;77.85;43.15;;;;;;;;;;5055141;28;20485;-56
2022/01/28 05:05:58;;;;;;;78.05;43.60;;;;;;;;;;5055019;28;20028;-49
2022/01/28 05:25:02;;;;;;;94.00;50.60;;;;;;;;;;5054946;28;20060;-49
2022/01/28 05:27:19;;;;;;;86.95;44.08;;;;;;;;;;5054459;28;20111;-49
2022/01/28 05:29:45;;;;;;;103.95;52.60;;;;;;;;;;5054515;28;20130;-47
2022/01/28 05:32:12;;;;;;;88.47;46.65;;;;;;;;;;5054589;28;20461;-46
2022/01/28 05:34:41;;;;;;;77.38;42.92;;;;;;;;;;5054444;28;20025;-50
2022/01/28 05:37:07;;;;;;;86.45;47.65;;;;;;;;;;5054411;28;20500;-47
2022/01/28 05:39:33;;;;;;;73.38;40.80;;;;;;;;;;5054498;28;20025;-47
2022/01/28 05:42:00;;;;;;;74.38;43.33;;;;;;;;;;5054485;28;20028;-47
2022/01/28 05:44:27;;;;;;;75.88;42.08;;;;;;;;;;5054720;28;20104;-47
2022/01/28 05:46:56;;;;;;;80.18;44.90;;;;;;;;;;5054277;28;20029;-47
2022/01/28 05:49:22;;;;;;;90.30;49.45;;;;;;;;;;5054450;28;20021;-50
2022/01/28 05:51:48;;;;;;;77.55;40.22;;;;;;;;;;5054246;28;20025;-50
2022/01/28 05:54:14;;;;;;;73.47;40.65;;;;;;;;;;5053834;28;20021;-50
2022/01/28 05:56:43;;;;;;;78.60;44.28;;;;;;;;;;5054617;28;20029;-49
2022/01/28 05:59:09;;;;;;;88.57;46.58;;;;;;;;;;5054130;28;20185;-46
2022/01/28 06:01:35;;;;;;;88.63;47.17;;;;;;;;;;5054006;28;20053;-50
2022/01/28 06:04:01;;;;;;;87.97;47.75;;;;;;;;;;5053895;28;20017;-49
2022/01/28 06:06:27;;;;;;;89.15;46.70;;;;;;;;;;5053894;28;20037;-47
2022/01/28 06:08:57;;;;;;;91.82;50.70;;;;;;;;;;5053893;28;20033;-49
2022/01/28 06:11:24;;;;;;;93.53;51.85;;;;;;;;;;5053898;28;20021;-46
2022/01/28 06:13:50;;;;;;;78.82;43.65;;;;;;;;;;5053762;28;20060;-50
2022/01/28 06:16:19;;;;;;;88.72;44.80;;;;;;;;;;5053692;28;20021;-46
2022/01/28 06:18:48;;;;;;;64.47;39.33;;;;;;;;;;5054054;28;20041;-46
2022/01/28 06:21:14;;;;;;;70.60;39.35;;;;;;;;;;5053657;28;20104;-46
2022/01/28 06:23:40;;;;;;;72.25;40.35;;;;;;;;;;5053692;28;20083;-47
2022/01/28 06:26:06;;;;;;;66.70;37.85;;;;;;;;;;5053496;28;20025;-46
2022/01/28 06:28:33;;;;;;;67.30;39.17;;;;;;;;;;5053344;28;20045;-49
2022/01/28 06:31:01;;;;;;;78.72;43.75;;;;;;;;;;5053381;28;20071;-46
2022/01/28 06:33:31;;;;;;;88.80;45.20;;;;;;;;;;5053454;28;20507;-48
2022/01/28 06:35:57;;;;;;;86.25;46.28;;;;;;;;;;5053641;28;20025;-47
2022/01/28 06:38:26;;;;;;;84.35;49.08;;;;;;;;;;5053230;28;20036;-49
2022/01/28 06:40:52;;;;;;;93.43;53.53;;;;;;;;;;5053245;28;20500;-49
2022/01/28 06:43:18;;;;;;;91.38;53.13;;;;;;;;;;5053155;28;20033;-49
2022/01/28 06:45:44;;;;;;;76.82;44.67;;;;;;;;;;5053366;28;20453;-49
2022/01/28 06:48:11;;;;;;;73.32;42.38;;;;;;;;;;5053038;28;20422;-46
2022/01/28 06:50:38;;;;;;;69.63;41.58;;;;;;;;;;5053152;28;20149;-50
2022/01/28 06:53:04;;;;;;;70.65;41.30;;;;;;;;;;5053202;28;20029;-47
2022/01/28 06:55:31;;;;;;;66.32;38.60;;;;;;;;;;5052989;28;20094;-46
2022/01/28 06:57:57;;;;;;;83.15;46.22;;;;;;;;;;5053214;28;20044;-47
2022/01/28 07:00:23;;;;;;;71.10;41.40;;;;;;;;;;5053052;28;20033;-46
2022/01/28 07:02:50;;;;;;;89.82;51.05;;;;;;;;;;5052969;28;20029;-49
2022/01/28 07:05:16;;;;;;;92.53;49.72;;;;;;;;;;5051956;28;20116;-49
2022/01/28 07:07:42;;;;;;;184.93;75.88;;;;;;;;;;5052323;28;20031;-46
2022/01/28 07:10:09;;;;;;;156.13;75.72;;;;;;;;;;5053043;28;20025;-46
2022/01/28 07:12:35;;;;;;;126.90;64.45;;;;;;;;;;5052862;28;20017;-49
2022/01/28 07:15:01;;;;;;;129.43;63.88;;;;;;;;;;5052839;28;20056;-49
2022/01/28 07:17:27;;;;;;;151.20;77.80;;;;;;;;;;5052734;28;20052;-48
2022/01/28 07:19:53;;;;;;;131.38;66.93;;;;;;;;;;5053029;28;20459;-46
2022/01/28 07:22:19;;;;;;;129.18;68.13;;;;;;;;;;5052948;28;20021;-49
2022/01/28 07:24:46;;;;;;;184.55;100.90;;;;;;;;;;5052718;28;20526;-47
2022/01/28 07:27:19;;;;;;;136.18;76.55;;;;;;;;;;5052588;28;20028;-48
2022/01/28 07:29:46;;;;;;;107.20;57.83;;;;;;;;;;5052595;28;20045;-48
2022/01/28 07:32:13;;;;;;;97.85;54.67;;;;;;;;;;5053195;28;20032;-48
2022/01/28 07:34:39;;;;;;;100.30;57.50;;;;;;;;;;5052741;28;20036;-47
2022/01/28 07:37:05;;;;;;;98.05;54.40;;;;;;;;;;5052802;28;20028;-47
2022/01/28 07:39:31;;;;;;;113.10;62.55;;;;;;;;;;5052709;28;20349;-47
2022/01/28 07:41:57;;;;;;;166.90;85.35;;;;;;;;;;5052224;28;20056;-50
2022/01/28 07:44:24;;;;;;;208.23;106.40;;;;;;;;;;5052102;28;20021;-47
2022/01/28 07:46:50;;;;;;;167.18;81.63;;;;;;;;;;5049418;28;20013;-47
2022/01/28 07:49:16;;;;;;;169.45;79.95;;;;;;;;;;5052160;28;20028;-47
2022/01/28 07:51:42;;;;;;;159.43;73.15;;;;;;;;;;5052060;28;20021;-50
2022/01/28 07:54:09;;;;;;;141.48;65.30;;;;;;;;;;5052001;28;20017;-54
2022/01/28 07:56:35;;;;;;;136.73;68.85;;;;;;;;;;5052134;28;20104;-52
2022/01/28 07:59:01;;;;;;;108.43;59.03;;;;;;;;;;5052282;28;20040;-53
2022/01/28 08:01:28;;;;;;;96.20;51.72;;;;;;;;;;5051868;28;20021;-52
2022/01/28 08:03:54;;;;;;;93.30;50.53;;;;;;;;;;5052020;28;20057;-50
2022/01/28 08:06:20;;;;;;;91.90;49.92;;;;;;;;;;5052145;28;20017;-51
2022/01/28 08:08:46;;;;;;;88.82;49.38;;;;;;;;;;5052030;28;20017;-52
2022/01/28 08:11:13;;;;;;;91.00;51.08;;;;;;;;;;5052090;28;20024;-50
2022/01/28 08:13:39;;;;;;;83.53;47.35;;;;;;;;;;5051928;28;20397;-46
2022/01/28 08:16:05;;;;;;;84.40;47.45;;;;;;;;;;5052310;28;20457;-47
2022/01/28 08:18:33;;;;;;;83.95;46.65;;;;;;;;;;5053776;28;20037;-47
2022/01/28 08:20:59;;;;;;;84.10;44.08;;;;;;;;;;5054756;28;20047;-52
2022/01/28 08:23:25;;;;;;;79.13;43.88;;;;;;;;;;5055550;28;20079;-46
2022/01/28 08:25:54;;;;;;;81.88;44.65;;;;;;;;;;5055206;28;20027;-47
2022/01/28 08:28:20;;;;;;;86.55;47.40;;;;;;;;;;5055174;28;20056;-46
2022/01/28 08:30:46;;;;;;;95.30;50.03;;;;;;;;;;5055201;28;20029;-51
2022/01/28 08:33:12;;;;;;;90.65;49.08;;;;;;;;;;5053438;28;20393;-53
2022/01/28 08:35:40;;;;;;;71.38;41.85;;;;;;;;;;5055061;28;20025;-52
2022/01/28 08:38:15;;;;;;;64.13;38.20;;;;;;;;;;5054946;28;20473;-53
2022/01/28 08:40:42;;;;;;;77.40;43.50;;;;;;;;;;5054912;28;20025;-47
2022/01/28 08:43:08;;;;;;;85.32;45.17;;;;;;;;;;5054693;28;20021;-48
2022/01/28 08:45:34;;;;;;;67.43;38.28;;;;;;;;;;5054847;28;20029;-49
2022/01/28 08:48:00;;;;;;;62.13;36.80;;;;;;;;;;5054986;28;20017;-47
2022/01/28 08:50:26;;;;;;;62.53;35.13;;;;;;;;;;5054834;28;20026;-47
2022/01/28 08:52:52;;;;;;;52.47;30.80;;;;;;;;;;5054817;28;20158;-52
2022/01/28 08:55:18;;;;;;;45.25;25.67;;;;;;;;;;5054598;28;20021;-48
2022/01/28 08:57:44;;;;;;;43.80;25.38;;;;;;;;;;5054721;28;20069;-52
2022/01/28 09:00:21;;;;;;;50.00;28.92;;;;;;;;;;5054705;28;20070;-47
2022/01/28 09:02:48;;;;;;;46.60;28.02;;;;;;;;;;5052470;28;20487;-47
2022/01/28 09:05:14;;;;;;;43.50;26.13;;;;;;;;;;5054669;28;20470;-54
2022/01/28 09:07:40;;;;;;;38.85;23.92;;;;;;;;;;5054569;28;20092;-49
2022/01/28 09:10:12;;;;;;;45.97;26.17;;;;;;;;;;5051891;28;20108;-48
2022/01/28 09:12:46;;;;;;;65.93;33.08;;;;;;;;;;5054455;28;20029;-53
2022/01/28 09:15:12;;;;;;;41.17;24.25;;;;;;;;;;5052626;28;20096;-48
2022/01/28 09:17:38;;;;;;;38.45;25.00;;;;;;;;;;5054243;28;20025;-48
2022/01/28 09:20:05;;;;;;;39.97;24.83;;;;;;;;;;5054215;28;20029;-48
2022/01/28 09:22:31;;;;;;;43.83;27.23;;;;;;;;;;5054173;28;20029;-48
2022/01/28 09:24:57;;;;;;;41.28;24.02;;;;;;;;;;5054228;28;20023;-47
2022/01/28 09:27:23;;;;;;;53.92;27.67;;;;;;;;;;5053995;28;20013;-47
2022/01/28 09:29:49;;;;;;;53.83;29.42;;;;;;;;;;5053404;28;20489;-48
2022/01/28 09:32:16;;;;;;;48.80;27.05;;;;;;;;;;5054024;28;20083;-51
2022/01/28 09:34:43;;;;;;;44.78;27.67;;;;;;;;;;5054108;28;20071;-48
2022/01/28 09:37:10;;;;;;;56.03;32.55;;;;;;;;;;5053918;28;20028;-48
2022/01/28 09:39:42;;;;;;;44.88;27.33;;;;;;;;;;5053486;28;20040;-49
2022/01/28 09:42:13;;;;;;;41.08;24.98;;;;;;;;;;5054163;28;20025;-47
2022/01/28 09:44:40;;;;;;;37.75;24.08;;;;;;;;;;5051716;28;20043;-52
2022/01/28 09:47:06;;;;;;;34.72;23.42;;;;;;;;;;5053771;28;20518;-49
2022/01/28 09:49:32;;;;;;;32.13;20.77;;;;;;;;;;5053877;28;20024;-48
2022/01/28 09:52:01;;;;;;;32.92;18.80;;;;;;;;;;5053267;28;20380;-51
2022/01/28 09:54:28;;;;;;;25.83;16.98;;;;;;;;;;5053635;28;20479;-53
2022/01/28 09:56:54;;;;;;;28.38;17.15;;;;;;;;;;5053708;28;20020;-47
2022/01/28 09:59:27;;;;;;;28.38;17.40;;;;;;;;;;5053727;28;20043;-47
2022/01/28 10:01:54;;;;;;;18.90;12.40;;;;;;;;;;5053478;28;20068;-47
2022/01/28 10:04:21;;;;;;;18.85;11.13;;;;;;;;;;5053559;28;20026;-52
2022/01/28 10:06:47;;;;;;;22.13;12.48;;;;;;;;;;5053183;28;20021;-47
2022/01/28 10:09:17;;;;;;;21.45;13.48;;;;;;;;;;5053253;28;20056;-53
2022/01/28 10:11:46;;;;;;;24.33;13.25;;;;;;;;;;5053277;28;20025;-54
2022/01/28 10:14:17;;;;;;;20.42;13.73;;;;;;;;;;5053338;28;20102;-49
2022/01/28 10:16:54;;;;;;;30.50;16.65;;;;;;;;;;5053394;28;20016;-47
2022/01/28 10:19:20;;;;;;;27.98;15.43;;;;;;;;;;5053061;28;20044;-48
2022/01/28 10:21:46;;;;;;;36.85;16.90;;;;;;;;;;5053744;28;20024;-48
2022/01/28 10:24:39;;;;;;;42.20;24.67;;;;;;;;;;5053763;28;20061;-49
2022/01/28 10:27:09;;;;;;;37.42;23.45;;;;;;;;;;5052446;28;20029;-47
2022/01/28 10:29:35;;;;;;;49.37;25.50;;;;;;;;;;5053527;28;20083;-47
2022/01/28 10:32:03;;;;;;;42.13;25.05;;;;;;;;;;5053510;28;20029;-54
2022/01/28 10:34:36;;;;;;;45.80;26.00;;;;;;;;;;5052070;28;20029;-49
2022/01/28 10:37:20;;;;;;;48.60;26.70;;;;;;;;;;5053285;28;20025;-48
2022/01/28 10:39:46;;;;;;;47.65;26.67;;;;;;;;;;5053462;28;20033;-51
2022/01/28 10:42:14;;;;;;;41.08;24.35;;;;;;;;;;5053191;28;20028;-50
2022/01/28 10:44:52;;;;;;;35.95;23.50;;;;;;;;;;5053264;28;20027;-52
2022/01/28 10:47:29;;;;;;;41.47;24.17;;;;;;;;;;5053185;28;20035;-47
2022/01/28 10:49:55;;;;;;;39.55;24.92;;;;;;;;;;5053155;28;20112;-54
2022/01/28 10:52:30;;;;;;;35.10;21.95;;;;;;;;;;5052992;28;20607;-48
2022/01/28 10:54:58;;;;;;;34.00;21.88;;;;;;;;;;5053196;28;20150;-53
2022/01/28 10:57:25;;;;;;;42.70;23.17;;;;;;;;;;5053019;28;20032;-52
2022/01/28 10:59:51;;;;;;;44.35;24.63;;;;;;;;;;5053320;28;20485;-54
2022/01/28 11:02:17;;;;;;;36.40;20.45;;;;;;;;;;5052935;28;20032;-49
2022/01/28 11:04:46;;;;;;;32.20;19.85;;;;;;;;;;5053251;28;20444;-53
2022/01/28 11:07:12;;;;;;;31.38;19.55;;;;;;;;;;5053040;28;20043;-48
2022/01/28 11:09:40;;;;;;;21.27;14.13;;;;;;;;;;5053270;28;20025;-51
2022/01/28 11:12:07;;;;;;;20.90;14.05;;;;;;;;;;5053015;28;20028;-52
2022/01/28 11:14:33;;;;;;;33.10;17.67;;;;;;;;;;5052802;28;20491;-50
2022/01/28 11:16:59;;;;;;;32.03;17.48;;;;;;;;;;5052814;28;20017;-50
2022/01/28 11:19:28;;;;;;;25.23;14.52;;;;;;;;;;5052910;28;20033;-49
2022/01/28 11:22:13;;;;;;;22.48;13.45;;;;;;;;;;5052780;28;20446;-48
2022/01/28 11:24:39;;;;;;;28.42;16.48;;;;;;;;;;5052638;28;20439;-48
2022/01/28 11:27:12;;;;;;;27.65;14.73;;;;;;;;;;5052379;28;20017;-47
2022/01/28 11:29:41;;;;;;;23.25;12.90;;;;;;;;;;5052113;28;20505;-54
2022/01/28 11:32:14;;;;;;;23.77;13.45;;;;;;;;;;5050065;28;20025;-54
2022/01/28 11:34:53;;;;;;;20.75;11.52;;;;;;;;;;5052357;28;20025;-48
2022/01/28 11:37:27;;;;;;;24.92;9.63;;;;;;;;;;5052047;28;20057;-52
2022/01/28 11:39:54;;;;;;;20.98;7.65;;;;;;;;;;5018670;28;20149;-50
2022/01/28 11:42:25;;;;;;;18.58;7.97;;;;;;;;;;5016724;28;20020;-48
2022/01/28 11:44:52;;;;;;;18.27;7.47;;;;;;;;;;5022113;28;20565;-48
2022/01/28 11:47:25;;;;;;;14.57;6.32;;;;;;;;;;5032800;28;20100;-48
2022/01/28 11:49:53;;;;;;;12.55;7.07;;;;;;;;;;5032812;28;20021;-47
2022/01/28 11:52:27;;;;;;;14.00;6.70;;;;;;;;;;5033124;28;20025;-50
2022/01/28 11:54:53;;;;;;;20.55;9.30;;;;;;;;;;5036346;28;20052;-54
2022/01/28 11:57:21;;;;;;;22.48;8.35;;;;;;;;;;5036378;28;20079;-47
2022/01/28 11:59:47;;;;;;;24.80;10.82;;;;;;;;;;5036294;28;20128;-48
2022/01/28 12:02:14;;;;;;;20.73;8.05;;;;;;;;;;5036393;28;20130;-53
2022/01/28 12:04:41;;;;;;;17.83;9.10;;;;;;;;;;5036397;28;20064;-49
2022/01/28 12:07:17;;;;;;;19.63;8.10;;;;;;;;;;5036743;28;20028;-53
2022/01/28 12:09:46;;;;;;;22.55;6.88;;;;;;;;;;5036082;28;20029;-47
2022/01/28 12:12:13;;;;;;;27.13;10.57;;;;;;;;;;5036282;28;20029;-57
2022/01/28 12:15:09;;;;;;;21.92;10.48;;;;;;;;;;5036133;28;20021;-48
2022/01/28 12:17:36;;;;;;;21.58;10.35;;;;;;;;;;5035929;28;20040;-46
2022/01/28 12:20:22;;;;;;;38.17;14.23;;;;;;;;;;5035912;28;20032;-54
2022/01/28 12:23:00;;;;;;;42.50;15.23;;;;;;;;;;5036013;28;20018;-47
2022/01/28 12:25:36;;;;;;;48.88;18.92;;;;;;;;;;5035869;28;20052;-47
2022/01/28 12:28:12;;;;;;;49.15;18.15;;;;;;;;;;5053565;28;20041;-47
2022/01/28 12:30:38;;;;;;;35.72;14.25;;;;;;;;;;5052965;28;20039;-48
2022/01/28 12:33:04;;;;;;;19.63;8.15;;;;;;;;;;5055211;28;20109;-49
2022/01/28 12:35:30;;;;;;;15.18;6.20;;;;;;;;;;5055494;28;20025;-51
2022/01/28 12:38:00;;;;;;;19.63;7.82;;;;;;;;;;5055089;28;20033;-47
2022/01/28 12:40:29;;;;;;;19.55;7.95;;;;;;;;;;5055007;28;20385;-46
2022/01/28 12:42:55;;;;;;;19.90;8.02;;;;;;;;;;5055142;28;20024;-53
2022/01/28 12:45:22;;;;;;;14.00;6.30;;;;;;;;;;5055047;28;20048;-53
2022/01/28 12:47:48;;;;;;;16.58;8.02;;;;;;;;;;5055550;28;20023;-46
2022/01/28 12:50:16;;;;;;;17.38;6.10;;;;;;;;;;5055418;28;20059;-46
2022/01/28 12:52:45;;;;;;;23.27;8.00;;;;;;;;;;5055542;28;20393;-48
2022/01/28 12:55:14;;;;;;;20.35;9.40;;;;;;;;;;5055245;28;20107;-49
2022/01/28 12:57:44;;;;;;;20.90;8.65;;;;;;;;;;5055103;28;20513;-46
2022/01/28 13:00:10;;;;;;;16.00;7.90;;;;;;;;;;5055252;28;20481;-52
2022/01/28 13:02:44;;;;;;;23.65;11.57;;;;;;;;;;5055336;28;20029;-47
2022/01/28 13:05:13;;;;;;;23.63;11.35;;;;;;;;;;5054014;28;20024;-50
2022/01/28 13:10:29;;;;;;;32.75;15.68;;;;;;;;;;5055270;28;20433;-48
2022/01/28 13:13:06;;;;;;;17.65;8.35;;;;;;;;;;5055247;28;20393;-51
2022/01/28 13:15:32;;;;;;;21.80;8.93;;;;;;;;;;5055079;28;20036;-47
2022/01/28 13:17:59;;;;;;;12.55;5.00;;;;;;;;;;5054977;28;20107;-51
2022/01/28 13:20:32;;;;;;;26.50;8.32;;;;;;;;;;5054623;28;20481;-50
2022/01/28 13:22:58;;;;;;;23.17;10.77;;;;;;;;;;5054325;28;20025;-50
2022/01/28 13:25:28;;;;;;;35.63;17.50;;;;;;;;;;5054151;28;20021;-47
2022/01/28 13:27:59;;;;;;;17.42;9.23;;;;;;;;;;5052790;28;20040;-50
2022/01/28 13:30:26;;;;;;;11.38;6.10;;;;;;;;;;5035002;28;20553;-51
2022/01/28 13:32:53;;;;;;;16.55;8.10;;;;;;;;;;5048957;28;20040;-50
2022/01/28 13:35:23;;;;;;;49.60;25.55;;;;;;;;;;5054347;28;20052;-49
2022/01/28 13:37:57;;;;;;;56.17;32.88;;;;;;;;;;5051747;28;20017;-47
2022/01/28 13:40:26;;;;;;;24.90;12.93;;;;;;;;;;5054060;28;20025;-50
2022/01/28 13:43:03;;;;;;;90.57;49.03;;;;;;;;;;5053719;28;20029;-47
2022/01/28 13:45:30;;;;;;;50.20;26.02;;;;;;;;;;5054335;28;20036;-48
2022/01/28 13:47:57;;;;;;;31.98;14.27;;;;;;;;;;5053911;28;20032;-50
2022/01/28 13:50:24;;;;;;;47.40;26.55;;;;;;;;;;5053742;28;20036;-49
2022/01/28 13:52:54;;;;;;;20.52;9.88;;;;;;;;;;5052461;28;20024;-50
2022/01/28 13:55:37;;;;;;;39.33;20.08;;;;;;;;;;5051114;28;20024;-47
2022/01/28 13:58:04;;;;;;;53.75;28.55;;;;;;;;;;5051634;28;20044;-48
2022/01/28 14:00:59;;;;;;;46.60;26.33;;;;;;;;;;5053278;28;20132;-47
2022/01/28 14:03:26;;;;;;;18.17;8.48;;;;;;;;;;5030077;28;20140;-48
2022/01/28 14:05:54;;;;;;;14.43;5.68;;;;;;;;;;5031881;28;20033;-47
2022/01/28 14:08:38;;;;;;;13.65;5.68;;;;;;;;;;5031983;28;20171;-49
2022/01/28 14:11:24;;;;;;;8.90;4.32;;;;;;;;;;5031745;28;20029;-48
2022/01/28 14:14:07;;;;;;;19.77;9.38;;;;;;;;;;5031992;28;20029;-47
2022/01/28 14:16:34;;;;;;;19.92;9.52;;;;;;;;;;5031400;28;20037;-47
2022/01/28 14:19:00;;;;;;;28.42;13.02;;;;;;;;;;5031589;28;20124;-48
2022/01/28 14:21:26;;;;;;;38.55;19.35;;;;;;;;;;5031552;28;20029;-49
2022/01/28 14:23:52;;;;;;;22.67;10.57;;;;;;;;;;5031044;28;20057;-48
2022/01/28 14:26:19;;;;;;;11.68;6.18;;;;;;;;;;5031097;28;20025;-48
2022/01/28 14:31:25;;;;;;;28.13;12.20;;;;;;;;;;5031367;28;20433;-50
2022/01/28 14:33:51;;;;;;;19.52;7.97;;;;;;;;;;5031351;28;20121;-49
2022/01/28 14:36:18;;;;;;;26.90;13.40;;;;;;;;;;5031427;28;20022;-49
2022/01/28 14:38:47;;;;;;;30.85;13.55;;;;;;;;;;5032450;28;20038;-51
2022/01/28 14:41:16;;;;;;;15.50;8.55;;;;;;;;;;5053304;28;20032;-48
2022/01/28 14:43:42;;;;;;;19.10;9.77;;;;;;;;;;5053326;28;20468;-49
2022/01/28 14:46:09;;;;;;;25.02;10.38;;;;;;;;;;5053268;28;20028;-49
2022/01/28 14:48:35;;;;;;;20.75;9.55;;;;;;;;;;5053245;28;20078;-50
2022/01/28 14:51:01;;;;;;;19.80;7.15;;;;;;;;;;5053184;28;20533;-49
2022/01/28 14:53:27;;;;;;;18.35;6.93;;;;;;;;;;5052715;28;20128;-49
2022/01/28 14:55:53;;;;;;;15.27;6.22;;;;;;;;;;5052878;28;20461;-49
2022/01/28 14:58:19;;;;;;;17.70;7.70;;;;;;;;;;5053168;28;20143;-49
2022/01/28 15:00:45;;;;;;;14.63;6.93;;;;;;;;;;5053129;28;20102;-48
2022/01/28 15:03:11;;;;;;;24.45;11.55;;;;;;;;;;5053200;28;20108;-49
2022/01/28 15:05:38;;;;;;;17.23;7.35;;;;;;;;;;5053116;28;20384;-46
2022/01/28 15:08:08;;;;;;;19.50;9.13;;;;;;;;;;5052351;28;20033;-49
2022/01/28 15:10:35;;;;;;;14.90;6.10;;;;;;;;;;5052026;28;20117;-49
2022/01/28 15:13:01;;;;;;;21.38;9.90;;;;;;;;;;5052142;28;20083;-49
2022/01/28 15:15:27;;;;;;;19.05;8.73;;;;;;;;;;5052234;28;20021;-47
2022/01/28 15:17:53;;;;;;;29.77;16.02;;;;;;;;;;5052517;28;20024;-47
2022/01/28 15:20:19;;;;;;;26.48;13.20;;;;;;;;;;5052357;28;20032;-48
2022/01/28 15:22:45;;;;;;;29.13;13.00;;;;;;;;;;5049722;28;20021;-47
2022/01/28 15:25:12;;;;;;;17.50;7.45;;;;;;;;;;5050940;28;20021;-47
2022/01/28 15:27:39;;;;;;;11.57;4.90;;;;;;;;;;5053327;28;20047;-48
2022/01/28 15:30:25;;;;;;;18.35;5.85;;;;;;;;;;5056969;28;20401;-47
2022/01/28 15:38:06;;;;;;;24.15;10.90;;;;;;;;;;5056665;28;20025;-47
2022/01/28 15:40:32;;;;;;;19.98;9.15;;;;;;;;;;5056901;28;20025;-48
2022/01/28 15:43:00;;;;;;;20.25;7.28;;;;;;;;;;5056863;28;20525;-49
2022/01/28 15:45:31;;;;;;;20.42;9.98;;;;;;;;;;5056704;28;20032;-47
2022/01/28 15:47:57;;;;;;;22.55;8.02;;;;;;;;;;5056628;28;20017;-49
2022/01/28 15:50:24;;;;;;;13.93;6.68;;;;;;;;;;5056771;28;20037;-49
2022/01/28 15:52:50;;;;;;;16.20;7.75;;;;;;;;;;5056604;28;20079;-48